sensor_id;sensor_type;location;lat;lon;timestamp;P1;durP1;ratioP1;P2;durP2;ratioP2
12852;SDS011;6495;51.808;7.478;2023-08-06T00:00:46;4.57;;;3.13;;
12852;SDS011;6495;51.808;7.478;2023-08-06T00:03:14;5.65;;;3.35;;
12852;SDS011;6495;51.808;7.478;2023-08-06T00:05:42;3.65;;;2.95;;
12852;SDS011;6495;51.808;7.478;2023-08-06T00:08:10;3.53;;;2.92;;
12852;SDS011;6495;51.808;7.478;2023-08-06T00:10:39;6.78;;;2.90;;
12852;SDS011;6495;51.808;7.478;2023-08-06T00:13:09;3.38;;;2.85;;
12852;SDS011;6495;51.808;7.478;2023-08-06T00:15:37;7.03;;;3.10;;
12852;SDS011;6495;51.808;7.478;2023-08-06T00:18:05;5.60;;;3.17;;
12852;SDS011;6495;51.808;7.478;2023-08-06T00:20:33;3.85;;;3.25;;
12852;SDS011;6495;51.808;7.478;2023-08-06T00:23:01;3.40;;;2.83;;
12852;SDS011;6495;51.808;7.478;2023-08-06T00:25:29;5.90;;;3.15;;
12852;SDS011;6495;51.808;7.478;2023-08-06T00:27:58;6.28;;;3.10;;
12852;SDS011;6495;51.808;7.478;2023-08-06T00:30:27;7.22;;;3.72;;
12852;SDS011;6495;51.808;7.478;2023-08-06T00:32:55;6.25;;;3.22;;
12852;SDS011;6495;51.808;7.478;2023-08-06T00:35:24;5.35;;;3.42;;
12852;SDS011;6495;51.808;7.478;2023-08-06T00:37:52;4.35;;;3.20;;
12852;SDS011;6495;51.808;7.478;2023-08-06T00:40:20;4.85;;;3.60;;
12852;SDS011;6495;51.808;7.478;2023-08-06T00:42:49;5.97;;;3.40;;
12852;SDS011;6495;51.808;7.478;2023-08-06T00:45:17;4.20;;;3.33;;
12852;SDS011;6495;51.808;7.478;2023-08-06T00:47:47;4.13;;;3.53;;
12852;SDS011;6495;51.808;7.478;2023-08-06T00:50:15;4.53;;;3.60;;
12852;SDS011;6495;51.808;7.478;2023-08-06T00:52:44;7.60;;;3.55;;
12852;SDS011;6495;51.808;7.478;2023-08-06T00:55:12;4.18;;;3.65;;
12852;SDS011;6495;51.808;7.478;2023-08-06T00:57:40;5.90;;;3.58;;
12852;SDS011;6495;51.808;7.478;2023-08-06T01:00:09;5.13;;;3.42;;
12852;SDS011;6495;51.808;7.478;2023-08-06T01:02:39;5.93;;;3.72;;
12852;SDS011;6495;51.808;7.478;2023-08-06T01:05:09;4.65;;;3.53;;
12852;SDS011;6495;51.808;7.478;2023-08-06T01:07:41;8.02;;;3.90;;
12852;SDS011;6495;51.808;7.478;2023-08-06T01:10:23;4.90;;;3.70;;
12852;SDS011;6495;51.808;7.478;2023-08-06T01:13:08;4.93;;;3.75;;
12852;SDS011;6495;51.808;7.478;2023-08-06T01:15:46;5.75;;;3.53;;
12852;SDS011;6495;51.808;7.478;2023-08-06T01:18:18;6.55;;;3.53;;
12852;SDS011;6495;51.808;7.478;2023-08-06T01:20:48;5.25;;;3.60;;
12852;SDS011;6495;51.808;7.478;2023-08-06T01:23:16;5.68;;;3.47;;
12852;SDS011;6495;51.808;7.478;2023-08-06T01:25:47;5.30;;;3.20;;
12852;SDS011;6495;51.808;7.478;2023-08-06T01:28:27;4.30;;;3.45;;
12852;SDS011;6495;51.808;7.478;2023-08-06T01:31:04;4.50;;;3.50;;
12852;SDS011;6495;51.808;7.478;2023-08-06T01:33:38;4.28;;;3.33;;
12852;SDS011;6495;51.808;7.478;2023-08-06T01:36:15;4.55;;;3.55;;
12852;SDS011;6495;51.808;7.478;2023-08-06T01:38:44;7.85;;;3.60;;
12852;SDS011;6495;51.808;7.478;2023-08-06T01:41:13;4.20;;;3.35;;
12852;SDS011;6495;51.808;7.478;2023-08-06T01:43:41;5.28;;;3.50;;
12852;SDS011;6495;51.808;7.478;2023-08-06T01:46:10;4.03;;;3.50;;
12852;SDS011;6495;51.808;7.478;2023-08-06T01:48:38;7.03;;;3.75;;
12852;SDS011;6495;51.808;7.478;2023-08-06T01:51:06;5.80;;;3.50;;
12852;SDS011;6495;51.808;7.478;2023-08-06T01:53:36;4.82;;;3.47;;
12852;SDS011;6495;51.808;7.478;2023-08-06T01:56:04;4.45;;;3.55;;
12852;SDS011;6495;51.808;7.478;2023-08-06T01:58:32;4.28;;;3.45;;
12852;SDS011;6495;51.808;7.478;2023-08-06T02:01:00;5.10;;;4.05;;
12852;SDS011;6495;51.808;7.478;2023-08-06T02:03:29;5.07;;;4.10;;
12852;SDS011;6495;51.808;7.478;2023-08-06T02:05:57;4.00;;;2.78;;
12852;SDS011;6495;51.808;7.478;2023-08-06T02:08:26;5.47;;;3.60;;
12852;SDS011;6495;51.808;7.478;2023-08-06T02:10:56;4.40;;;3.75;;
12852;SDS011;6495;51.808;7.478;2023-08-06T02:13:25;7.30;;;3.97;;
12852;SDS011;6495;51.808;7.478;2023-08-06T02:15:53;4.18;;;3.22;;
12852;SDS011;6495;51.808;7.478;2023-08-06T02:18:22;4.68;;;3.53;;
12852;SDS011;6495;51.808;7.478;2023-08-06T02:20:56;4.43;;;3.65;;
12852;SDS011;6495;51.808;7.478;2023-08-06T02:23:25;4.78;;;3.67;;
12852;SDS011;6495;51.808;7.478;2023-08-06T02:25:59;5.43;;;3.60;;
12852;SDS011;6495;51.808;7.478;2023-08-06T02:28:31;5.78;;;3.28;;
12852;SDS011;6495;51.808;7.478;2023-08-06T02:31:00;4.03;;;3.63;;
12852;SDS011;6495;51.808;7.478;2023-08-06T02:33:28;5.10;;;3.50;;
12852;SDS011;6495;51.808;7.478;2023-08-06T02:35:59;7.75;;;3.60;;
12852;SDS011;6495;51.808;7.478;2023-08-06T02:38:29;6.28;;;3.63;;
12852;SDS011;6495;51.808;7.478;2023-08-06T02:40:59;7.07;;;3.97;;
12852;SDS011;6495;51.808;7.478;2023-08-06T02:43:31;6.28;;;3.80;;
12852;SDS011;6495;51.808;7.478;2023-08-06T02:46:00;7.97;;;3.63;;
12852;SDS011;6495;51.808;7.478;2023-08-06T02:48:29;4.95;;;3.83;;
12852;SDS011;6495;51.808;7.478;2023-08-06T02:50:57;5.28;;;3.00;;
12852;SDS011;6495;51.808;7.478;2023-08-06T02:53:28;7.97;;;3.78;;
12852;SDS011;6495;51.808;7.478;2023-08-06T02:56:01;4.75;;;3.25;;
12852;SDS011;6495;51.808;7.478;2023-08-06T02:58:44;5.03;;;3.22;;
12852;SDS011;6495;51.808;7.478;2023-08-06T03:01:23;10.15;;;3.67;;
12852;SDS011;6495;51.808;7.478;2023-08-06T03:03:57;4.72;;;3.50;;
12852;SDS011;6495;51.808;7.478;2023-08-06T03:06:32;6.30;;;3.47;;
12852;SDS011;6495;51.808;7.478;2023-08-06T03:09:01;6.88;;;3.55;;
12852;SDS011;6495;51.808;7.478;2023-08-06T03:11:30;6.88;;;3.90;;
12852;SDS011;6495;51.808;7.478;2023-08-06T03:14:04;5.05;;;3.67;;
12852;SDS011;6495;51.808;7.478;2023-08-06T03:16:32;11.32;;;3.55;;
12852;SDS011;6495;51.808;7.478;2023-08-06T03:19:00;6.43;;;3.35;;
12852;SDS011;6495;51.808;7.478;2023-08-06T03:21:29;4.95;;;3.17;;
12852;SDS011;6495;51.808;7.478;2023-08-06T03:23:58;6.45;;;3.42;;
12852;SDS011;6495;51.808;7.478;2023-08-06T03:26:31;5.07;;;3.63;;
12852;SDS011;6495;51.808;7.478;2023-08-06T03:28:59;4.55;;;3.55;;
12852;SDS011;6495;51.808;7.478;2023-08-06T03:31:30;6.32;;;3.58;;
12852;SDS011;6495;51.808;7.478;2023-08-06T03:33:58;4.90;;;3.20;;
12852;SDS011;6495;51.808;7.478;2023-08-06T03:36:29;4.90;;;3.72;;
12852;SDS011;6495;51.808;7.478;2023-08-06T03:38:57;7.13;;;4.18;;
12852;SDS011;6495;51.808;7.478;2023-08-06T03:41:26;4.78;;;3.60;;
12852;SDS011;6495;51.808;7.478;2023-08-06T03:43:55;5.10;;;3.75;;
12852;SDS011;6495;51.808;7.478;2023-08-06T03:46:25;9.00;;;3.58;;
12852;SDS011;6495;51.808;7.478;2023-08-06T03:48:54;5.05;;;3.33;;
12852;SDS011;6495;51.808;7.478;2023-08-06T03:51:24;6.85;;;3.35;;
12852;SDS011;6495;51.808;7.478;2023-08-06T03:53:53;6.90;;;3.42;;
12852;SDS011;6495;51.808;7.478;2023-08-06T03:56:21;4.20;;;3.35;;
12852;SDS011;6495;51.808;7.478;2023-08-06T03:58:49;3.95;;;3.35;;
12852;SDS011;6495;51.808;7.478;2023-08-06T04:01:19;4.72;;;3.88;;
12852;SDS011;6495;51.808;7.478;2023-08-06T04:03:47;4.70;;;3.65;;
12852;SDS011;6495;51.808;7.478;2023-08-06T04:06:15;4.28;;;3.28;;
12852;SDS011;6495;51.808;7.478;2023-08-06T04:08:43;3.60;;;3.25;;
12852;SDS011;6495;51.808;7.478;2023-08-06T04:11:12;6.32;;;3.55;;
12852;SDS011;6495;51.808;7.478;2023-08-06T04:13:42;5.47;;;3.50;;
12852;SDS011;6495;51.808;7.478;2023-08-06T04:16:11;6.13;;;3.67;;
12852;SDS011;6495;51.808;7.478;2023-08-06T04:18:42;6.38;;;3.55;;
12852;SDS011;6495;51.808;7.478;2023-08-06T04:21:12;4.57;;;3.67;;
12852;SDS011;6495;51.808;7.478;2023-08-06T04:23:40;4.88;;;3.88;;
12852;SDS011;6495;51.808;7.478;2023-08-06T04:26:09;4.72;;;3.22;;
12852;SDS011;6495;51.808;7.478;2023-08-06T04:28:38;3.67;;;3.10;;
12852;SDS011;6495;51.808;7.478;2023-08-06T04:31:07;3.42;;;3.10;;
12852;SDS011;6495;51.808;7.478;2023-08-06T04:33:38;5.60;;;3.50;;
12852;SDS011;6495;51.808;7.478;2023-08-06T04:36:11;3.55;;;3.22;;
12852;SDS011;6495;51.808;7.478;2023-08-06T04:38:39;5.22;;;3.25;;
12852;SDS011;6495;51.808;7.478;2023-08-06T04:41:13;5.70;;;2.83;;
12852;SDS011;6495;51.808;7.478;2023-08-06T04:43:41;4.18;;;3.55;;
12852;SDS011;6495;51.808;7.478;2023-08-06T04:46:09;5.65;;;3.40;;
12852;SDS011;6495;51.808;7.478;2023-08-06T04:48:37;4.70;;;3.58;;
12852;SDS011;6495;51.808;7.478;2023-08-06T04:51:06;5.20;;;3.38;;
12852;SDS011;6495;51.808;7.478;2023-08-06T04:53:35;4.88;;;3.65;;
12852;SDS011;6495;51.808;7.478;2023-08-06T04:56:04;4.50;;;3.05;;
12852;SDS011;6495;51.808;7.478;2023-08-06T04:58:32;3.88;;;3.30;;
12852;SDS011;6495;51.808;7.478;2023-08-06T05:01:01;5.15;;;3.17;;
12852;SDS011;6495;51.808;7.478;2023-08-06T05:03:30;5.80;;;3.20;;
12852;SDS011;6495;51.808;7.478;2023-08-06T05:05:58;5.50;;;2.90;;
12852;SDS011;6495;51.808;7.478;2023-08-06T05:08:26;4.15;;;3.00;;
12852;SDS011;6495;51.808;7.478;2023-08-06T05:10:56;6.32;;;3.58;;
12852;SDS011;6495;51.808;7.478;2023-08-06T05:13:24;4.05;;;3.20;;
12852;SDS011;6495;51.808;7.478;2023-08-06T05:15:53;3.35;;;2.92;;
12852;SDS011;6495;51.808;7.478;2023-08-06T05:18:21;3.90;;;2.72;;
12852;SDS011;6495;51.808;7.478;2023-08-06T05:20:50;3.50;;;2.90;;
12852;SDS011;6495;51.808;7.478;2023-08-06T05:23:18;3.88;;;2.97;;
12852;SDS011;6495;51.808;7.478;2023-08-06T05:25:46;7.30;;;2.80;;
12852;SDS011;6495;51.808;7.478;2023-08-06T05:28:16;3.53;;;2.70;;
12852;SDS011;6495;51.808;7.478;2023-08-06T05:30:44;7.80;;;3.03;;
12852;SDS011;6495;51.808;7.478;2023-08-06T05:33:12;4.63;;;3.00;;
12852;SDS011;6495;51.808;7.478;2023-08-06T05:35:40;4.10;;;3.03;;
12852;SDS011;6495;51.808;7.478;2023-08-06T05:38:08;3.83;;;2.85;;
12852;SDS011;6495;51.808;7.478;2023-08-06T05:40:37;3.50;;;2.70;;
12852;SDS011;6495;51.808;7.478;2023-08-06T05:43:05;4.55;;;2.90;;
12852;SDS011;6495;51.808;7.478;2023-08-06T05:45:34;3.40;;;2.90;;
12852;SDS011;6495;51.808;7.478;2023-08-06T05:48:03;3.38;;;2.75;;
12852;SDS011;6495;51.808;7.478;2023-08-06T05:50:31;3.70;;;3.28;;
12852;SDS011;6495;51.808;7.478;2023-08-06T05:53:00;3.70;;;3.28;;
12852;SDS011;6495;51.808;7.478;2023-08-06T05:55:28;5.15;;;3.03;;
12852;SDS011;6495;51.808;7.478;2023-08-06T05:57:57;3.47;;;2.90;;
12852;SDS011;6495;51.808;7.478;2023-08-06T06:00:25;3.33;;;3.03;;
12852;SDS011;6495;51.808;7.478;2023-08-06T06:02:55;5.18;;;3.30;;
12852;SDS011;6495;51.808;7.478;2023-08-06T06:05:23;7.25;;;2.95;;
12852;SDS011;6495;51.808;7.478;2023-08-06T06:07:51;4.40;;;3.28;;
12852;SDS011;6495;51.808;7.478;2023-08-06T06:10:19;3.88;;;2.90;;
12852;SDS011;6495;51.808;7.478;2023-08-06T06:12:48;5.63;;;2.83;;
12852;SDS011;6495;51.808;7.478;2023-08-06T06:15:16;7.88;;;3.60;;
12852;SDS011;6495;51.808;7.478;2023-08-06T06:17:44;3.33;;;2.95;;
12852;SDS011;6495;51.808;7.478;2023-08-06T06:20:13;6.47;;;3.30;;
12852;SDS011;6495;51.808;7.478;2023-08-06T06:22:42;5.72;;;3.10;;
12852;SDS011;6495;51.808;7.478;2023-08-06T06:25:10;4.47;;;3.22;;
12852;SDS011;6495;51.808;7.478;2023-08-06T06:27:38;4.78;;;3.40;;
12852;SDS011;6495;51.808;7.478;2023-08-06T06:30:07;5.05;;;4.05;;
12852;SDS011;6495;51.808;7.478;2023-08-06T06:32:38;3.83;;;3.33;;
12852;SDS011;6495;51.808;7.478;2023-08-06T06:35:07;5.28;;;3.33;;
12852;SDS011;6495;51.808;7.478;2023-08-06T06:37:38;6.78;;;3.42;;
12852;SDS011;6495;51.808;7.478;2023-08-06T06:40:07;3.35;;;3.05;;
12852;SDS011;6495;51.808;7.478;2023-08-06T06:42:36;4.05;;;3.15;;
12852;SDS011;6495;51.808;7.478;2023-08-06T06:45:07;5.55;;;3.38;;
12852;SDS011;6495;51.808;7.478;2023-08-06T06:47:36;5.53;;;3.83;;
12852;SDS011;6495;51.808;7.478;2023-08-06T06:50:05;3.70;;;3.10;;
12852;SDS011;6495;51.808;7.478;2023-08-06T06:52:34;4.47;;;3.40;;
12852;SDS011;6495;51.808;7.478;2023-08-06T06:55:04;5.65;;;3.28;;
12852;SDS011;6495;51.808;7.478;2023-08-06T06:57:33;4.28;;;3.08;;
12852;SDS011;6495;51.808;7.478;2023-08-06T07:00:01;6.00;;;3.50;;
12852;SDS011;6495;51.808;7.478;2023-08-06T07:02:32;4.43;;;3.03;;
12852;SDS011;6495;51.808;7.478;2023-08-06T07:05:00;7.22;;;2.97;;
12852;SDS011;6495;51.808;7.478;2023-08-06T07:07:28;4.20;;;2.65;;
12852;SDS011;6495;51.808;7.478;2023-08-06T07:09:56;3.72;;;2.90;;
12852;SDS011;6495;51.808;7.478;2023-08-06T07:12:26;3.03;;;2.30;;
12852;SDS011;6495;51.808;7.478;2023-08-06T07:14:54;5.43;;;2.20;;
12852;SDS011;6495;51.808;7.478;2023-08-06T07:17:22;3.17;;;2.03;;
12852;SDS011;6495;51.808;7.478;2023-08-06T07:19:51;2.53;;;2.20;;
12852;SDS011;6495;51.808;7.478;2023-08-06T07:22:19;2.67;;;2.03;;
12852;SDS011;6495;51.808;7.478;2023-08-06T07:24:47;3.10;;;2.33;;
12852;SDS011;6495;51.808;7.478;2023-08-06T07:27:15;3.22;;;2.03;;
12852;SDS011;6495;51.808;7.478;2023-08-06T07:29:45;2.28;;;1.80;;
12852;SDS011;6495;51.808;7.478;2023-08-06T07:32:14;2.45;;;1.85;;
12852;SDS011;6495;51.808;7.478;2023-08-06T07:34:42;2.10;;;1.90;;
12852;SDS011;6495;51.808;7.478;2023-08-06T07:37:10;2.70;;;1.75;;
12852;SDS011;6495;51.808;7.478;2023-08-06T07:39:38;2.75;;;2.03;;
12852;SDS011;6495;51.808;7.478;2023-08-06T07:42:10;1.55;;;1.45;;
12852;SDS011;6495;51.808;7.478;2023-08-06T07:44:38;2.90;;;1.83;;
12852;SDS011;6495;51.808;7.478;2023-08-06T07:47:08;3.58;;;2.30;;
12852;SDS011;6495;51.808;7.478;2023-08-06T07:49:36;3.35;;;1.65;;
12852;SDS011;6495;51.808;7.478;2023-08-06T07:52:04;3.40;;;2.00;;
12852;SDS011;6495;51.808;7.478;2023-08-06T07:54:33;2.42;;;1.70;;
12852;SDS011;6495;51.808;7.478;2023-08-06T07:57:01;2.28;;;2.05;;
12852;SDS011;6495;51.808;7.478;2023-08-06T07:59:30;3.40;;;1.98;;
12852;SDS011;6495;51.808;7.478;2023-08-06T08:01:59;2.78;;;1.77;;
12852;SDS011;6495;51.808;7.478;2023-08-06T08:04:29;2.10;;;1.65;;
12852;SDS011;6495;51.808;7.478;2023-08-06T08:06:57;2.65;;;1.77;;
12852;SDS011;6495;51.808;7.478;2023-08-06T08:09:25;2.95;;;1.83;;
12852;SDS011;6495;51.808;7.478;2023-08-06T08:11:53;2.50;;;1.95;;
12852;SDS011;6495;51.808;7.478;2023-08-06T08:14:25;2.70;;;2.08;;
12852;SDS011;6495;51.808;7.478;2023-08-06T08:16:53;1.83;;;1.63;;
12852;SDS011;6495;51.808;7.478;2023-08-06T08:19:21;3.97;;;1.85;;
12852;SDS011;6495;51.808;7.478;2023-08-06T08:21:51;2.15;;;1.88;;
12852;SDS011;6495;51.808;7.478;2023-08-06T08:24:20;4.38;;;2.40;;
12852;SDS011;6495;51.808;7.478;2023-08-06T08:26:50;3.15;;;2.00;;
12852;SDS011;6495;51.808;7.478;2023-08-06T08:29:19;2.45;;;1.95;;
12852;SDS011;6495;51.808;7.478;2023-08-06T08:31:48;4.63;;;2.50;;
12852;SDS011;6495;51.808;7.478;2023-08-06T08:34:16;2.17;;;1.98;;
12852;SDS011;6495;51.808;7.478;2023-08-06T08:36:45;5.43;;;2.05;;
12852;SDS011;6495;51.808;7.478;2023-08-06T08:39:15;2.95;;;2.03;;
12852;SDS011;6495;51.808;7.478;2023-08-06T08:41:43;3.10;;;2.33;;
12852;SDS011;6495;51.808;7.478;2023-08-06T08:44:13;2.75;;;1.80;;
12852;SDS011;6495;51.808;7.478;2023-08-06T08:46:44;6.63;;;2.08;;
12852;SDS011;6495;51.808;7.478;2023-08-06T08:49:15;5.22;;;1.92;;
12852;SDS011;6495;51.808;7.478;2023-08-06T08:51:45;3.20;;;1.73;;
12852;SDS011;6495;51.808;7.478;2023-08-06T08:54:16;2.05;;;1.80;;
12852;SDS011;6495;51.808;7.478;2023-08-06T08:56:46;4.32;;;2.03;;
12852;SDS011;6495;51.808;7.478;2023-08-06T08:59:14;3.85;;;1.95;;
12852;SDS011;6495;51.808;7.478;2023-08-06T09:01:42;3.53;;;2.10;;
12852;SDS011;6495;51.808;7.478;2023-08-06T09:04:17;3.50;;;2.20;;
12852;SDS011;6495;51.808;7.478;2023-08-06T09:06:46;3.05;;;2.05;;
12852;SDS011;6495;51.808;7.478;2023-08-06T09:09:20;2.20;;;2.00;;
12852;SDS011;6495;51.808;7.478;2023-08-06T09:11:55;2.58;;;1.98;;
12852;SDS011;6495;51.808;7.478;2023-08-06T09:14:29;2.17;;;1.90;;
12852;SDS011;6495;51.808;7.478;2023-08-06T09:16:57;4.75;;;2.42;;
12852;SDS011;6495;51.808;7.478;2023-08-06T09:19:26;4.65;;;2.20;;
12852;SDS011;6495;51.808;7.478;2023-08-06T09:21:55;4.15;;;2.30;;
12852;SDS011;6495;51.808;7.478;2023-08-06T09:24:25;4.75;;;2.45;;
12852;SDS011;6495;51.808;7.478;2023-08-06T09:26:54;3.10;;;2.08;;
12852;SDS011;6495;51.808;7.478;2023-08-06T09:29:22;3.38;;;2.15;;
12852;SDS011;6495;51.808;7.478;2023-08-06T09:31:50;3.03;;;2.10;;
12852;SDS011;6495;51.808;7.478;2023-08-06T09:34:20;2.53;;;1.80;;
12852;SDS011;6495;51.808;7.478;2023-08-06T09:36:50;2.95;;;2.30;;
12852;SDS011;6495;51.808;7.478;2023-08-06T09:39:21;2.00;;;1.88;;
12852;SDS011;6495;51.808;7.478;2023-08-06T09:41:56;2.10;;;1.85;;
12852;SDS011;6495;51.808;7.478;2023-08-06T09:44:27;3.45;;;2.30;;
12852;SDS011;6495;51.808;7.478;2023-08-06T09:46:57;3.45;;;2.60;;
12852;SDS011;6495;51.808;7.478;2023-08-06T09:49:27;3.17;;;2.28;;
12852;SDS011;6495;51.808;7.478;2023-08-06T09:52:08;2.72;;;2.03;;
12852;SDS011;6495;51.808;7.478;2023-08-06T09:54:40;4.05;;;3.47;;
12852;SDS011;6495;51.808;7.478;2023-08-06T09:57:10;3.95;;;3.28;;
12852;SDS011;6495;51.808;7.478;2023-08-06T09:59:40;2.50;;;2.10;;
12852;SDS011;6495;51.808;7.478;2023-08-06T10:02:12;6.00;;;2.13;;
12852;SDS011;6495;51.808;7.478;2023-08-06T10:04:42;2.28;;;2.08;;
12852;SDS011;6495;51.808;7.478;2023-08-06T10:07:21;3.28;;;2.35;;
12852;SDS011;6495;51.808;7.478;2023-08-06T10:09:52;2.30;;;1.90;;
12852;SDS011;6495;51.808;7.478;2023-08-06T10:12:20;3.45;;;2.15;;
12852;SDS011;6495;51.808;7.478;2023-08-06T10:14:51;4.28;;;2.45;;
12852;SDS011;6495;51.808;7.478;2023-08-06T10:17:24;2.90;;;2.28;;
12852;SDS011;6495;51.808;7.478;2023-08-06T10:20:13;3.60;;;2.33;;
12852;SDS011;6495;51.808;7.478;2023-08-06T10:22:44;2.85;;;2.25;;
12852;SDS011;6495;51.808;7.478;2023-08-06T10:25:18;3.83;;;2.20;;
12852;SDS011;6495;51.808;7.478;2023-08-06T10:27:53;2.65;;;2.17;;
12852;SDS011;6495;51.808;7.478;2023-08-06T10:30:23;4.30;;;2.05;;
12852;SDS011;6495;51.808;7.478;2023-08-06T10:32:53;2.20;;;2.00;;
12852;SDS011;6495;51.808;7.478;2023-08-06T10:35:30;3.00;;;2.10;;
12852;SDS011;6495;51.808;7.478;2023-08-06T10:38:03;2.45;;;2.22;;
12852;SDS011;6495;51.808;7.478;2023-08-06T10:40:34;2.17;;;1.98;;
12852;SDS011;6495;51.808;7.478;2023-08-06T10:43:03;2.58;;;2.00;;
12852;SDS011;6495;51.808;7.478;2023-08-06T10:45:34;2.60;;;2.40;;
12852;SDS011;6495;51.808;7.478;2023-08-06T10:48:04;2.60;;;2.13;;
12852;SDS011;6495;51.808;7.478;2023-08-06T10:50:33;2.30;;;2.10;;
12852;SDS011;6495;51.808;7.478;2023-08-06T10:53:03;2.50;;;2.30;;
12852;SDS011;6495;51.808;7.478;2023-08-06T10:55:34;2.03;;;1.83;;
12852;SDS011;6495;51.808;7.478;2023-08-06T10:58:04;3.67;;;2.05;;
12852;SDS011;6495;51.808;7.478;2023-08-06T11:00:33;2.92;;;2.10;;
12852;SDS011;6495;51.808;7.478;2023-08-06T11:03:01;3.05;;;2.00;;
12852;SDS011;6495;51.808;7.478;2023-08-06T11:05:31;2.47;;;2.28;;
12852;SDS011;6495;51.808;7.478;2023-08-06T11:08:00;2.38;;;1.90;;
12852;SDS011;6495;51.808;7.478;2023-08-06T11:10:29;3.40;;;2.30;;
12852;SDS011;6495;51.808;7.478;2023-08-06T11:13:02;2.55;;;1.80;;
12852;SDS011;6495;51.808;7.478;2023-08-06T11:15:30;3.05;;;1.90;;
12852;SDS011;6495;51.808;7.478;2023-08-06T11:17:59;3.15;;;1.98;;
12852;SDS011;6495;51.808;7.478;2023-08-06T11:20:29;3.25;;;2.17;;
12852;SDS011;6495;51.808;7.478;2023-08-06T11:22:57;2.10;;;1.90;;
12852;SDS011;6495;51.808;7.478;2023-08-06T11:25:26;2.38;;;1.90;;
12852;SDS011;6495;51.808;7.478;2023-08-06T11:27:55;2.45;;;1.70;;
12852;SDS011;6495;51.808;7.478;2023-08-06T11:30:26;2.47;;;1.77;;
12852;SDS011;6495;51.808;7.478;2023-08-06T11:32:54;2.80;;;1.80;;
12852;SDS011;6495;51.808;7.478;2023-08-06T11:35:24;2.70;;;1.85;;
12852;SDS011;6495;51.808;7.478;2023-08-06T11:37:53;2.47;;;1.70;;
12852;SDS011;6495;51.808;7.478;2023-08-06T11:40:21;2.22;;;1.80;;
12852;SDS011;6495;51.808;7.478;2023-08-06T11:42:50;2.28;;;1.73;;
12852;SDS011;6495;51.808;7.478;2023-08-06T11:45:21;3.40;;;1.60;;
12852;SDS011;6495;51.808;7.478;2023-08-06T11:47:52;4.68;;;1.95;;
12852;SDS011;6495;51.808;7.478;2023-08-06T11:50:23;2.53;;;1.80;;
12852;SDS011;6495;51.808;7.478;2023-08-06T11:52:53;3.75;;;1.63;;
12852;SDS011;6495;51.808;7.478;2023-08-06T11:55:42;2.17;;;1.85;;
12852;SDS011;6495;51.808;7.478;2023-08-06T11:58:11;2.72;;;1.80;;
12852;SDS011;6495;51.808;7.478;2023-08-06T12:00:41;5.70;;;1.52;;
12852;SDS011;6495;51.808;7.478;2023-08-06T12:03:11;1.73;;;1.50;;
12852;SDS011;6495;51.808;7.478;2023-08-06T12:05:43;1.50;;;1.40;;
12852;SDS011;6495;51.808;7.478;2023-08-06T12:08:13;2.65;;;1.65;;
12852;SDS011;6495;51.808;7.478;2023-08-06T12:10:41;4.35;;;1.48;;
12852;SDS011;6495;51.808;7.478;2023-08-06T12:13:09;1.85;;;1.45;;
12852;SDS011;6495;51.808;7.478;2023-08-06T12:15:39;1.90;;;1.38;;
12852;SDS011;6495;51.808;7.478;2023-08-06T12:18:07;1.58;;;1.48;;
12852;SDS011;6495;51.808;7.478;2023-08-06T12:20:36;1.88;;;1.77;;
12852;SDS011;6495;51.808;7.478;2023-08-06T12:23:05;1.42;;;1.33;;
12852;SDS011;6495;51.808;7.478;2023-08-06T12:25:33;1.60;;;1.38;;
12852;SDS011;6495;51.808;7.478;2023-08-06T12:28:01;2.55;;;1.48;;
12852;SDS011;6495;51.808;7.478;2023-08-06T12:30:29;2.22;;;1.60;;
12852;SDS011;6495;51.808;7.478;2023-08-06T12:32:57;1.42;;;1.33;;
12852;SDS011;6495;51.808;7.478;2023-08-06T12:35:26;1.50;;;1.40;;
12852;SDS011;6495;51.808;7.478;2023-08-06T12:37:55;1.67;;;1.58;;
12852;SDS011;6495;51.808;7.478;2023-08-06T12:40:24;2.10;;;1.73;;
12852;SDS011;6495;51.808;7.478;2023-08-06T12:43:03;2.20;;;1.67;;
12852;SDS011;6495;51.808;7.478;2023-08-06T12:45:32;1.98;;;1.75;;
12852;SDS011;6495;51.808;7.478;2023-08-06T12:48:00;2.00;;;1.50;;
12852;SDS011;6495;51.808;7.478;2023-08-06T12:50:29;2.78;;;1.60;;
12852;SDS011;6495;51.808;7.478;2023-08-06T12:53:00;1.70;;;1.60;;
12852;SDS011;6495;51.808;7.478;2023-08-06T12:55:30;2.00;;;1.77;;
12852;SDS011;6495;51.808;7.478;2023-08-06T12:57:59;4.43;;;1.70;;
12852;SDS011;6495;51.808;7.478;2023-08-06T13:00:27;1.70;;;1.60;;
12852;SDS011;6495;51.808;7.478;2023-08-06T13:02:55;2.63;;;1.83;;
12852;SDS011;6495;51.808;7.478;2023-08-06T13:05:25;1.80;;;1.65;;
12852;SDS011;6495;51.808;7.478;2023-08-06T13:07:53;1.48;;;1.38;;
12852;SDS011;6495;51.808;7.478;2023-08-06T13:10:23;1.60;;;1.50;;
12852;SDS011;6495;51.808;7.478;2023-08-06T13:12:52;2.03;;;1.55;;
12852;SDS011;6495;51.808;7.478;2023-08-06T13:15:20;1.60;;;1.30;;
12852;SDS011;6495;51.808;7.478;2023-08-06T13:17:48;1.52;;;1.42;;
12852;SDS011;6495;51.808;7.478;2023-08-06T13:20:18;1.70;;;1.60;;
12852;SDS011;6495;51.808;7.478;2023-08-06T13:22:47;2.03;;;1.60;;
12852;SDS011;6495;51.808;7.478;2023-08-06T13:25:17;3.78;;;1.80;;
12852;SDS011;6495;51.808;7.478;2023-08-06T13:27:47;1.60;;;1.50;;
12852;SDS011;6495;51.808;7.478;2023-08-06T13:30:15;1.40;;;1.30;;
12852;SDS011;6495;51.808;7.478;2023-08-06T13:32:45;1.80;;;1.50;;
12852;SDS011;6495;51.808;7.478;2023-08-06T13:35:13;2.13;;;1.60;;
12852;SDS011;6495;51.808;7.478;2023-08-06T13:37:41;1.70;;;1.60;;
12852;SDS011;6495;51.808;7.478;2023-08-06T13:40:10;2.05;;;1.48;;
12852;SDS011;6495;51.808;7.478;2023-08-06T13:42:38;1.85;;;1.60;;
12852;SDS011;6495;51.808;7.478;2023-08-06T13:45:09;1.73;;;1.58;;
12852;SDS011;6495;51.808;7.478;2023-08-06T13:47:37;1.95;;;1.55;;
12852;SDS011;6495;51.808;7.478;2023-08-06T13:50:06;2.55;;;1.60;;
12852;SDS011;6495;51.808;7.478;2023-08-06T13:52:35;2.00;;;1.77;;
12852;SDS011;6495;51.808;7.478;2023-08-06T13:55:03;1.63;;;1.52;;
12852;SDS011;6495;51.808;7.478;2023-08-06T13:57:32;2.25;;;1.60;;
12852;SDS011;6495;51.808;7.478;2023-08-06T14:00:01;2.28;;;1.58;;
12852;SDS011;6495;51.808;7.478;2023-08-06T14:02:39;2.10;;;1.50;;
12852;SDS011;6495;51.808;7.478;2023-08-06T14:05:07;2.03;;;1.60;;
12852;SDS011;6495;51.808;7.478;2023-08-06T14:07:35;1.90;;;1.63;;
12852;SDS011;6495;51.808;7.478;2023-08-06T14:10:04;2.58;;;1.58;;
12852;SDS011;6495;51.808;7.478;2023-08-06T14:12:35;3.72;;;1.45;;
12852;SDS011;6495;51.808;7.478;2023-08-06T14:15:03;2.50;;;1.55;;
12852;SDS011;6495;51.808;7.478;2023-08-06T14:17:32;2.80;;;1.55;;
12852;SDS011;6495;51.808;7.478;2023-08-06T14:20:03;4.75;;;1.40;;
12852;SDS011;6495;51.808;7.478;2023-08-06T14:22:35;1.25;;;1.00;;
12852;SDS011;6495;51.808;7.478;2023-08-06T14:25:04;1.27;;;1.17;;
12852;SDS011;6495;51.808;7.478;2023-08-06T14:27:33;1.35;;;1.23;;
12852;SDS011;6495;51.808;7.478;2023-08-06T14:30:01;1.67;;;1.08;;
12852;SDS011;6495;51.808;7.478;2023-08-06T14:32:30;1.90;;;1.30;;
12852;SDS011;6495;51.808;7.478;2023-08-06T14:34:58;0.90;;;0.90;;
12852;SDS011;6495;51.808;7.478;2023-08-06T14:37:28;1.25;;;1.15;;
12852;SDS011;6495;51.808;7.478;2023-08-06T14:39:56;1.33;;;1.00;;
12852;SDS011;6495;51.808;7.478;2023-08-06T14:42:24;0.88;;;0.88;;
12852;SDS011;6495;51.808;7.478;2023-08-06T14:44:52;0.98;;;0.88;;
12852;SDS011;6495;51.808;7.478;2023-08-06T14:47:20;1.08;;;0.93;;
12852;SDS011;6495;51.808;7.478;2023-08-06T14:49:48;1.10;;;0.90;;
12852;SDS011;6495;51.808;7.478;2023-08-06T14:52:17;1.00;;;0.95;;
12852;SDS011;6495;51.808;7.478;2023-08-06T14:54:46;1.00;;;0.90;;
12852;SDS011;6495;51.808;7.478;2023-08-06T14:57:18;2.78;;;0.80;;
12852;SDS011;6495;51.808;7.478;2023-08-06T14:59:47;1.23;;;0.93;;
12852;SDS011;6495;51.808;7.478;2023-08-06T15:02:16;1.10;;;1.00;;
12852;SDS011;6495;51.808;7.478;2023-08-06T15:04:44;0.90;;;0.90;;
12852;SDS011;6495;51.808;7.478;2023-08-06T15:07:12;0.82;;;0.63;;
12852;SDS011;6495;51.808;7.478;2023-08-06T15:09:40;1.05;;;1.00;;
12852;SDS011;6495;51.808;7.478;2023-08-06T15:12:30;1.10;;;1.00;;
12852;SDS011;6495;51.808;7.478;2023-08-06T15:14:58;0.95;;;0.95;;